createdAt,value
2022-10-31T00:02:01.998Z,99492.00
2022-10-31T00:04:28.919Z,99504.03
2022-10-31T00:06:55.783Z,99506.25
2022-10-31T00:09:22.631Z,99507.38
2022-10-31T00:11:49.443Z,99507.69
2022-10-31T00:14:16.279Z,99510.72
2022-10-31T00:16:43.099Z,99509.44
2022-10-31T00:19:10.019Z,99477.34
2022-10-31T00:21:36.947Z,99517.91
2022-10-31T00:24:04.109Z,99506.53
2022-10-31T00:26:31.466Z,99513.88
2022-10-31T00:28:59.545Z,99523.50
2022-10-31T00:31:27.513Z,99516.41
2022-10-31T00:33:54.353Z,99507.44
2022-10-31T00:36:21.695Z,99515.63
2022-10-31T00:38:48.593Z,99512.09
2022-10-31T00:41:17.074Z,99512.38
2022-10-31T00:43:44.250Z,99511.59
2022-10-31T00:46:12.094Z,99506.13
2022-10-31T00:48:39.029Z,99499.88
2022-10-31T00:51:06.559Z,99504.53
2022-10-31T00:53:33.372Z,99510.78
2022-10-31T00:56:00.309Z,99508.34
2022-10-31T00:58:28.467Z,99509.97
2022-10-31T01:00:58.805Z,99508.34
2022-10-31T01:03:27.351Z,99508.34
2022-10-31T01:05:58.951Z,99507.56
2022-10-31T01:08:26.281Z,99507.88
2022-10-31T01:11:16.218Z,99490.75
2022-10-31T01:13:43.488Z,99486.59
2022-10-31T01:16:16.314Z,99490.25
2022-10-31T01:18:43.221Z,99509.91
2022-10-31T01:21:14.689Z,99511.00
2022-10-31T01:23:41.696Z,99492.97
2022-10-31T01:26:13.385Z,99506.19
2022-10-31T01:28:46.397Z,99513.84
2022-10-31T01:31:13.262Z,99507.09
2022-10-31T01:33:40.233Z,99512.84
2022-10-31T01:36:24.849Z,99511.22
2022-10-31T01:38:52.891Z,99507.53
2022-10-31T01:41:21.648Z,99507.81
2022-10-31T01:43:53.702Z,99504.28
2022-10-31T01:46:26.187Z,99486.38
2022-10-31T01:48:54.130Z,99500.59
2022-10-31T01:51:21.955Z,99497.66
2022-10-31T01:53:48.948Z,99503.97
2022-10-31T01:56:15.923Z,99512.66
2022-10-31T01:58:42.812Z,99511.03
2022-10-31T02:01:09.878Z,99507.81
2022-10-31T02:03:37.785Z,99514.88
2022-10-31T02:06:04.707Z,99520.22
2022-10-31T02:08:32.255Z,99512.94
2022-10-31T02:10:59.523Z,99511.75
2022-10-31T02:15:59.388Z,99509.16
2022-10-31T02:18:29.212Z,99518.66
2022-10-31T02:20:58.943Z,99511.25
2022-10-31T02:23:50.712Z,99511.09
2022-10-31T02:26:23.798Z,99506.00
2022-10-31T02:29:07.990Z,99509.59
2022-10-31T02:32:01.837Z,99504.63
2022-10-31T02:34:53.817Z,99507.53
2022-10-31T02:37:23.350Z,99503.88
2022-10-31T02:40:21.093Z,99506.31
2022-10-31T02:43:32.161Z,99502.38
2022-10-31T02:46:12.345Z,99506.81
2022-10-31T02:48:40.220Z,99509.41
2022-10-31T02:51:07.348Z,99520.50
2022-10-31T02:53:36.767Z,99511.06
2022-10-31T02:56:13.957Z,99523.94
2022-10-31T02:59:02.397Z,99520.31
2022-10-31T03:01:35.729Z,99524.63
2022-10-31T03:04:40.349Z,99527.03
2022-10-31T03:07:41.337Z,99526.09
2022-10-31T03:10:08.241Z,99528.72
2022-10-31T03:13:05.699Z,99528.72
2022-10-31T03:15:46.235Z,99536.06
2022-10-31T03:18:27.555Z,99539.13
2022-10-31T03:21:00.209Z,99532.88
2022-10-31T03:23:27.018Z,99543.94
2022-10-31T03:25:54.409Z,99539.97
2022-10-31T03:28:29.578Z,99515.06
2022-10-31T03:30:57.204Z,99546.75
2022-10-31T03:33:27.464Z,99550.75
2022-10-31T03:35:56.575Z,99551.72
2022-10-31T03:38:24.338Z,99547.03
2022-10-31T03:40:53.145Z,99552.06
2022-10-31T03:43:31.376Z,99543.91
2022-10-31T03:45:58.272Z,99548.22
2022-10-31T03:48:25.112Z,99551.94
2022-10-31T03:51:06.331Z,99544.72
2022-10-31T03:53:40.957Z,99554.81
2022-10-31T03:56:20.767Z,99559.69
2022-10-31T03:59:08.374Z,99556.47
2022-10-31T04:01:37.353Z,99557.78
2022-10-31T04:04:04.343Z,99554.41
2022-10-31T04:06:31.161Z,99559.88
2022-10-31T04:09:00.760Z,99555.03
2022-10-31T04:11:33.022Z,99561.47
2022-10-31T04:14:28.979Z,99557.16
2022-10-31T04:16:56.755Z,99536.06
2022-10-31T04:19:33.818Z,99564.22
2022-10-31T04:22:00.973Z,99546.88
2022-10-31T04:24:27.941Z,99568.91
2022-10-31T04:26:54.938Z,99569.72
2022-10-31T04:29:23.653Z,99570.22
2022-10-31T04:31:51.469Z,99559.28
2022-10-31T04:34:18.408Z,99572.78
2022-10-31T04:36:45.363Z,99565.88
2022-10-31T04:39:14.853Z,99572.78
2022-10-31T04:41:48.657Z,99573.91
2022-10-31T04:44:16.698Z,99551.84
2022-10-31T04:46:44.090Z,99573.41
2022-10-31T04:49:11.557Z,99580.03
2022-10-31T04:51:38.630Z,99576.97
2022-10-31T04:54:05.702Z,99575.69
2022-10-31T04:56:55.349Z,99579.38
2022-10-31T04:59:23.626Z,99581.75
2022-10-31T05:01:53.636Z,99586.06
2022-10-31T05:04:41.817Z,99582.31
2022-10-31T05:07:08.874Z,99586.59
2022-10-31T05:09:35.983Z,99593.94
2022-10-31T05:12:02.935Z,99587.88
2022-10-31T05:14:52.711Z,99588.47
2022-10-31T05:17:38.287Z,99584.19
2022-10-31T05:20:14.341Z,99562.13
2022-10-31T05:23:13.496Z,99578.72
2022-10-31T05:25:41.820Z,99572.16
2022-10-31T05:28:08.953Z,99593.91
2022-10-31T05:30:36.187Z,99580.16
2022-10-31T05:33:04.784Z,99600.50
2022-10-31T05:35:51.652Z,99594.59
2022-10-31T05:38:24.383Z,99601.47
2022-10-31T05:40:51.373Z,99601.50
2022-10-31T05:43:18.259Z,99605.75
2022-10-31T05:45:45.345Z,99604.84
2022-10-31T05:48:30.203Z,99608.28
2022-10-31T05:51:19.888Z,99622.28
2022-10-31T05:53:48.212Z,99616.44
2022-10-31T05:56:15.330Z,99619.34
2022-10-31T05:58:42.206Z,99623.22
2022-10-31T06:01:10.006Z,99625.53
2022-10-31T06:03:38.544Z,99607.19
2022-10-31T06:06:09.762Z,99615.31
2022-10-31T06:08:39.075Z,99611.53
2022-10-31T06:11:10.741Z,99618.97
2022-10-31T06:14:07.317Z,99616.78
2022-10-31T06:16:45.544Z,99621.59
2022-10-31T06:19:32.653Z,99620.78
2022-10-31T06:21:59.840Z,99631.22
2022-10-31T06:24:26.836Z,99629.84
2022-10-31T06:26:53.683Z,99632.81
2022-10-31T06:29:21.684Z,99631.06
2022-10-31T06:32:05.144Z,99628.88
2022-10-31T06:34:37.124Z,99637.47
2022-10-31T06:37:04.149Z,99642.09
2022-10-31T06:39:31.498Z,99639.66
2022-10-31T06:41:58.591Z,99615.84
2022-10-31T06:44:27.602Z,99627.47
2022-10-31T06:46:54.536Z,99634.81
2022-10-31T06:49:51.304Z,99630.00
2022-10-31T06:52:24.445Z,99645.53
2022-10-31T06:54:51.927Z,99643.94
2022-10-31T06:57:19.296Z,99633.09
2022-10-31T06:59:46.349Z,99645.31
2022-10-31T07:02:25.593Z,99655.94
2022-10-31T07:04:52.695Z,99654.09
2022-10-31T07:07:22.229Z,99663.38
2022-10-31T07:09:50.781Z,99652.22
2022-10-31T07:12:21.584Z,99651.06
2022-10-31T07:14:56.421Z,99655.41
2022-10-31T07:17:29.705Z,99653.31
2022-10-31T07:19:58.940Z,99659.19
2022-10-31T07:22:36.398Z,99663.91
2022-10-31T07:25:05.582Z,99662.06
2022-10-31T07:27:51.062Z,99660.94
2022-10-31T07:30:19.827Z,99660.47
2022-10-31T07:32:50.154Z,99668.97
2022-10-31T07:35:37.166Z,99657.72
2022-10-31T07:38:08.764Z,99661.03
2022-10-31T07:40:35.748Z,99669.06
2022-10-31T07:43:03.340Z,99647.81
2022-10-31T07:45:54.094Z,99654.84
2022-10-31T07:48:47.229Z,99660.03
2022-10-31T07:51:32.517Z,99660.13
2022-10-31T07:54:25.369Z,99642.25
2022-10-31T07:56:52.330Z,99664.09
2022-10-31T07:59:19.257Z,99667.03
2022-10-31T08:01:46.213Z,99659.94
2022-10-31T08:04:33.597Z,99660.81
2022-10-31T08:07:18.987Z,99664.03
2022-10-31T08:09:53.079Z,99672.22
2022-10-31T08:12:23.977Z,99667.50
2022-10-31T08:14:51.359Z,99674.81
2022-10-31T08:17:19.834Z,99675.25
2022-10-31T08:19:53.217Z,99676.50
2022-10-31T08:22:24.259Z,99671.09
2022-10-31T08:24:51.204Z,99677.22
2022-10-31T08:27:18.733Z,99674.13
2022-10-31T08:29:46.070Z,99675.16
2022-10-31T08:32:13.696Z,99669.38
2022-10-31T08:34:58.472Z,99678.72
2022-10-31T08:37:56.264Z,99667.25
2022-10-31T08:40:26.201Z,99672.31
2022-10-31T08:43:03.052Z,99670.97
2022-10-31T08:45:30.928Z,99669.63
2022-10-31T08:48:02.285Z,99654.50
2022-10-31T08:50:31.394Z,99669.34
2022-10-31T08:53:06.105Z,99661.78
2022-10-31T08:55:35.778Z,99675.31
2022-10-31T08:58:05.946Z,99665.00
2022-10-31T09:00:41.726Z,99674.84
2022-10-31T09:03:17.056Z,99682.53
2022-10-31T09:05:44.315Z,99674.63
2022-10-31T09:08:16.288Z,99673.81
2022-10-31T09:10:46.402Z,99667.41
2022-10-31T09:13:20.682Z,99636.94
2022-10-31T09:16:06.316Z,99676.84
2022-10-31T09:18:34.911Z,99673.97
2022-10-31T09:21:01.891Z,99660.13
2022-10-31T09:23:30.927Z,99679.03
2022-10-31T09:26:00.802Z,99680.06
2022-10-31T09:28:47.442Z,99661.75
2022-10-31T09:31:17.127Z,99678.00
2022-10-31T09:33:49.832Z,99672.25
2022-10-31T09:36:47.038Z,99681.69
2022-10-31T09:39:23.129Z,99656.38
2022-10-31T09:42:19.345Z,99675.81
2022-10-31T09:44:46.515Z,99686.13
2022-10-31T09:47:38.556Z,99678.47
2022-10-31T09:50:48.630Z,99668.63
2022-10-31T09:53:48.754Z,99669.31
2022-10-31T09:56:22.028Z,99668.06
2022-10-31T09:58:59.205Z,99667.56
2022-10-31T10:01:48.192Z,99662.66
2022-10-31T10:04:33.920Z,99670.09
2022-10-31T10:07:24.183Z,99660.81
2022-10-31T10:10:40.658Z,99621.06
2022-10-31T10:13:47.810Z,99658.06
2022-10-31T10:16:34.424Z,99660.59
2022-10-31T10:19:07.663Z,99652.81
2022-10-31T10:21:38.975Z,99654.19
2022-10-31T10:24:24.247Z,99642.72
2022-10-31T10:27:11.358Z,99645.25
2022-10-31T10:29:50.533Z,99627.25
2022-10-31T10:32:25.766Z,99642.13
2022-10-31T10:34:55.283Z,99638.59
2022-10-31T10:37:24.195Z,99637.66
2022-10-31T10:39:54.833Z,99633.31
2022-10-31T10:42:40.359Z,99640.50
2022-10-31T10:45:44.152Z,99628.94
2022-10-31T10:48:41.618Z,99627.66
2022-10-31T10:51:25.562Z,99632.56
2022-10-31T10:54:15.209Z,99626.84
2022-10-31T10:57:00.773Z,99628.19
2022-10-31T10:59:27.824Z,99627.91
2022-10-31T11:01:54.712Z,99624.91
2022-10-31T11:04:35.577Z,99619.16
2022-10-31T11:07:06.310Z,99613.66
2022-10-31T11:09:33.850Z,99593.53
2022-10-31T11:12:01.113Z,99614.97
2022-10-31T11:14:28.328Z,99592.63
2022-10-31T11:17:10.053Z,99608.88
2022-10-31T11:19:37.051Z,99616.28
2022-10-31T11:22:17.365Z,99590.94
2022-10-31T11:24:44.506Z,99589.06
2022-10-31T11:27:18.276Z,99606.53
2022-10-31T11:29:45.232Z,99606.63
2022-10-31T11:32:25.051Z,99585.56
2022-10-31T11:34:56.278Z,99608.53
2022-10-31T11:37:26.513Z,99595.50
2022-10-31T11:39:57.966Z,99603.59
2022-10-31T11:42:27.625Z,99567.09
2022-10-31T11:44:54.993Z,99582.69
2022-10-31T11:47:27.797Z,99590.00
2022-10-31T11:49:54.708Z,99607.03
2022-10-31T11:52:29.623Z,99596.63
2022-10-31T11:55:23.526Z,99592.63
2022-10-31T11:57:56.811Z,99570.88
2022-10-31T12:00:48.458Z,99588.81
2022-10-31T12:03:23.127Z,99582.22
2022-10-31T12:05:57.116Z,99583.66
2022-10-31T12:08:24.015Z,99583.84
2022-10-31T12:11:25.499Z,99586.41
2022-10-31T12:14:14.045Z,99587.28
2022-10-31T12:16:49.741Z,99571.13
2022-10-31T12:19:50.081Z,99575.91
2022-10-31T12:22:25.394Z,99572.44
2022-10-31T12:24:52.213Z,99567.78
2022-10-31T12:27:19.081Z,99574.69
2022-10-31T12:30:13.506Z,99573.59
2022-10-31T12:32:59.417Z,99574.91
2022-10-31T12:35:45.057Z,99563.16
2022-10-31T12:38:41.004Z,99562.09
2022-10-31T12:41:29.782Z,99559.59
2022-10-31T12:44:37.938Z,99569.25
2022-10-31T12:47:26.685Z,99564.84
2022-10-31T12:50:02.628Z,99558.63
2022-10-31T12:52:41.400Z,99554.16
2022-10-31T12:55:36.144Z,99554.41
2022-10-31T12:58:22.892Z,99557.41
2022-10-31T13:00:52.845Z,99544.19
2022-10-31T13:03:34.689Z,99550.28
2022-10-31T13:06:09.371Z,99525.28
2022-10-31T13:08:56.548Z,99546.13
2022-10-31T13:11:35.046Z,99554.84
2022-10-31T13:14:17.060Z,99552.69
2022-10-31T13:16:45.759Z,99525.63
2022-10-31T13:19:23.700Z,99543.28
2022-10-31T13:22:07.991Z,99545.81
2022-10-31T13:24:54.033Z,99524.34
2022-10-31T13:27:25.623Z,99542.84
2022-10-31T13:30:05.803Z,99541.31
2022-10-31T13:32:52.340Z,99518.53
2022-10-31T13:35:25.111Z,99550.88
2022-10-31T13:38:11.726Z,99520.72
2022-10-31T13:41:03.584Z,99537.97
2022-10-31T13:43:42.625Z,99539.50
2022-10-31T13:46:34.782Z,99522.81
2022-10-31T13:49:01.936Z,99543.63
2022-10-31T13:51:33.301Z,99554.28
2022-10-31T13:54:02.415Z,99520.69
2022-10-31T13:56:31.599Z,99542.75
2022-10-31T13:59:10.673Z,99538.88
2022-10-31T14:01:37.939Z,99544.81
2022-10-31T14:04:45.025Z,99524.19
2022-10-31T14:07:13.307Z,99544.59
2022-10-31T14:10:02.576Z,99538.91
2022-10-31T14:12:40.532Z,99518.44
2022-10-31T14:15:21.449Z,99531.50
2022-10-31T14:18:00.074Z,99531.06
2022-10-31T14:20:35.129Z,99531.69
2022-10-31T14:23:36.897Z,99520.03
2022-10-31T14:26:07.786Z,99513.00
2022-10-31T14:28:35.995Z,99522.66
2022-10-31T14:31:03.004Z,99525.84
2022-10-31T14:33:31.038Z,99528.53
2022-10-31T14:36:01.296Z,99526.06
2022-10-31T14:38:31.390Z,99519.56
2022-10-31T14:41:19.658Z,99525.50
2022-10-31T14:44:08.257Z,99536.84
2022-10-31T14:46:38.885Z,99534.94
2022-10-31T14:49:15.605Z,99523.09
2022-10-31T14:51:47.075Z,99525.06
2022-10-31T14:54:21.458Z,99514.44
2022-10-31T14:56:52.137Z,99519.91
2022-10-31T14:59:23.580Z,99526.59
2022-10-31T15:02:16.712Z,99528.97
2022-10-31T15:04:43.885Z,99519.84
2022-10-31T15:07:12.670Z,99526.06
2022-10-31T15:09:41.801Z,99517.81
2022-10-31T15:12:29.077Z,99520.13
2022-10-31T15:14:56.886Z,99517.66
2022-10-31T15:17:24.523Z,99522.34
2022-10-31T15:19:51.458Z,99521.13
2022-10-31T15:22:19.721Z,99523.38
2022-10-31T15:24:46.642Z,99521.44
2022-10-31T15:27:16.946Z,99519.00
2022-10-31T15:29:56.275Z,99519.00
2022-10-31T15:32:26.741Z,99515.31
2022-10-31T15:34:54.365Z,99508.81
2022-10-31T15:37:22.393Z,99523.88
2022-10-31T15:39:50.103Z,99497.03
2022-10-31T15:42:28.613Z,99522.53
2022-10-31T15:45:03.491Z,99517.72
2022-10-31T15:47:31.420Z,99519.50
2022-10-31T15:49:59.094Z,99522.97
2022-10-31T15:52:43.828Z,99530.00
2022-10-31T15:55:21.716Z,99494.66
2022-10-31T15:57:50.245Z,99531.72
2022-10-31T16:00:30.262Z,99528.53
2022-10-31T16:03:15.095Z,99531.94
2022-10-31T16:05:46.542Z,99530.22
2022-10-31T16:08:31.257Z,99522.88
2022-10-31T16:10:58.881Z,99527.19
2022-10-31T16:13:32.593Z,99519.50
2022-10-31T16:19:01.579Z,99530.44
2022-10-31T16:21:31.348Z,99525.31
2022-10-31T16:24:05.985Z,99531.53
2022-10-31T16:26:33.033Z,99533.34
2022-10-31T16:29:04.763Z,99517.31
2022-10-31T16:31:39.432Z,99529.31
2022-10-31T16:34:11.304Z,99547.19
2022-10-31T16:36:40.126Z,99541.34
2022-10-31T16:39:07.378Z,99540.72
2022-10-31T16:41:42.746Z,99535.56
2022-10-31T16:44:22.326Z,99542.16
2022-10-31T16:46:49.336Z,99537.13
2022-10-31T16:49:16.637Z,99541.28
2022-10-31T16:51:43.905Z,99538.78
2022-10-31T16:54:11.858Z,99533.56
2022-10-31T16:56:38.936Z,99538.16
2022-10-31T16:59:09.894Z,99538.44
2022-10-31T17:01:41.306Z,99509.88
2022-10-31T17:04:10.110Z,99529.78
2022-10-31T17:06:37.472Z,99536.69
2022-10-31T17:09:04.486Z,99537.09
2022-10-31T17:11:31.303Z,99536.19
2022-10-31T17:13:58.151Z,99536.31
2022-10-31T17:16:25.189Z,99526.25
2022-10-31T17:18:52.379Z,99538.94
2022-10-31T17:21:23.272Z,99547.59
2022-10-31T17:23:50.792Z,99548.50
2022-10-31T17:26:18.041Z,99547.13
2022-10-31T17:28:45.103Z,99547.81
2022-10-31T17:31:33.054Z,99553.13
2022-10-31T17:34:02.153Z,99550.50
2022-10-31T17:36:31.099Z,99549.56
2022-10-31T17:38:58.160Z,99551.44
2022-10-31T17:41:25.051Z,99548.22
2022-10-31T17:43:56.169Z,99539.88
2022-10-31T17:46:23.033Z,99534.94
2022-10-31T17:48:49.975Z,99534.72
2022-10-31T17:51:16.922Z,99527.81
2022-10-31T17:53:43.774Z,99539.06
2022-10-31T17:56:10.671Z,99525.75
2022-10-31T17:58:37.751Z,99531.94
2022-10-31T18:01:09.823Z,99539.38
2022-10-31T18:03:36.949Z,99533.44
2022-10-31T18:06:03.967Z,99532.31
2022-10-31T18:08:32.508Z,99529.88
2022-10-31T18:11:02.451Z,99538.00
2022-10-31T18:13:29.293Z,99533.78
2022-10-31T18:15:56.259Z,99537.44
2022-10-31T18:18:23.259Z,99529.28
2022-10-31T18:20:50.086Z,99539.13
2022-10-31T18:23:17.149Z,99534.22
2022-10-31T18:25:44.175Z,99538.22
2022-10-31T18:28:11.037Z,99531.00
2022-10-31T18:30:41.258Z,99534.31
2022-10-31T18:33:08.601Z,99535.91
2022-10-31T18:35:37.899Z,99523.78
2022-10-31T18:38:06.271Z,99531.09
2022-10-31T18:40:36.201Z,99533.41
2022-10-31T18:43:03.200Z,99510.53
2022-10-31T18:45:41.757Z,99532.53
2022-10-31T18:48:14.367Z,99530.38
2022-10-31T18:50:41.419Z,99529.41
2022-10-31T18:53:08.277Z,99529.16
2022-10-31T18:55:39.872Z,99533.13
2022-10-31T18:58:08.136Z,99538.06
2022-10-31T19:00:35.024Z,99527.31
2022-10-31T19:03:02.082Z,99528.44
2022-10-31T19:05:29.200Z,99535.88
2022-10-31T19:07:56.036Z,99532.09
2022-10-31T19:10:22.876Z,99531.63
2022-10-31T19:12:49.726Z,99535.03
2022-10-31T19:15:16.515Z,99527.47
2022-10-31T19:17:43.408Z,99529.06
2022-10-31T19:20:10.953Z,99530.53
2022-10-31T19:22:37.795Z,99530.91
2022-10-31T19:25:07.678Z,99525.28
2022-10-31T19:27:37.179Z,99531.41
2022-10-31T19:30:04.444Z,99525.81
2022-10-31T19:32:31.305Z,99529.09
2022-10-31T19:34:58.218Z,99525.44
2022-10-31T19:37:25.073Z,99502.47
2022-10-31T19:39:52.103Z,99518.69
2022-10-31T19:42:18.957Z,99524.16
2022-10-31T19:44:45.798Z,99521.72
2022-10-31T19:47:12.634Z,99518.06
2022-10-31T19:49:39.509Z,99510.84
2022-10-31T19:52:06.423Z,99518.25
2022-10-31T19:54:33.278Z,99516.84
2022-10-31T19:57:00.157Z,99517.22
2022-10-31T19:59:27.067Z,99505.66
2022-10-31T20:01:53.961Z,99522.91
2022-10-31T20:04:20.932Z,99514.06
2022-10-31T20:06:47.777Z,99513.59
2022-10-31T20:09:14.806Z,99504.75
2022-10-31T20:11:42.815Z,99503.53
2022-10-31T20:14:11.423Z,99498.50
2022-10-31T20:16:38.294Z,99499.63
2022-10-31T20:19:05.240Z,99504.63
2022-10-31T20:21:34.063Z,99502.56
2022-10-31T20:24:02.604Z,99474.34
2022-10-31T20:26:31.871Z,99475.94
2022-10-31T20:28:59.314Z,99502.28
2022-10-31T20:31:27.913Z,99502.97
2022-10-31T20:33:55.805Z,99510.69
2022-10-31T20:36:23.424Z,99506.53
2022-10-31T20:38:51.121Z,99502.53
2022-10-31T20:41:18.282Z,99505.13
2022-10-31T20:43:45.201Z,99472.84
2022-10-31T20:46:23.224Z,99478.75
2022-10-31T20:48:50.270Z,99495.50
2022-10-31T20:51:25.441Z,99499.03
2022-10-31T20:53:52.786Z,99493.41
2022-10-31T20:56:20.755Z,99498.75
2022-10-31T20:58:47.684Z,99489.25
2022-10-31T21:01:25.083Z,99484.91
2022-10-31T21:03:52.220Z,99490.56
2022-10-31T21:06:19.426Z,99488.16
2022-10-31T21:08:46.278Z,99481.75
2022-10-31T21:11:15.811Z,99480.78
2022-10-31T21:13:43.500Z,99470.47
2022-10-31T21:16:12.153Z,99483.69
2022-10-31T21:18:39.664Z,99463.94
2022-10-31T21:21:15.665Z,99477.09
2022-10-31T21:23:43.250Z,99475.16
2022-10-31T21:26:17.516Z,99467.31
2022-10-31T21:28:44.387Z,99468.63
2022-10-31T21:31:14.066Z,99468.13
2022-10-31T21:33:41.064Z,99466.06
2022-10-31T21:36:08.288Z,99468.00
2022-10-31T21:38:35.332Z,99460.09
2022-10-31T21:41:07.064Z,99462.19
2022-10-31T21:43:37.798Z,99435.06
2022-10-31T21:46:15.015Z,99445.81
2022-10-31T21:48:42.974Z,99446.47
2022-10-31T21:51:11.329Z,99444.06
2022-10-31T21:53:56.812Z,99446.16
2022-10-31T21:56:24.037Z,99442.13
2022-10-31T21:58:51.539Z,99447.47
2022-10-31T22:01:18.541Z,99435.88
2022-10-31T22:03:45.469Z,99438.91
2022-10-31T22:06:12.616Z,99437.19
2022-10-31T22:08:40.722Z,99433.16
2022-10-31T22:11:13.643Z,99436.22
2022-10-31T22:13:40.960Z,99436.22
2022-10-31T22:16:09.522Z,99432.19
2022-10-31T22:18:36.581Z,99428.84
2022-10-31T22:21:14.771Z,99432.84
2022-10-31T22:23:41.872Z,99426.44
2022-10-31T22:26:14.413Z,99427.88
2022-10-31T22:28:42.083Z,99407.66
2022-10-31T22:31:09.786Z,99421.63
2022-10-31T22:33:36.780Z,99433.50
2022-10-31T22:36:05.581Z,99427.25
2022-10-31T22:38:34.387Z,99427.91
2022-10-31T22:41:01.745Z,99434.81
2022-10-31T22:43:28.556Z,99428.69
2022-10-31T22:45:56.347Z,99424.66
2022-10-31T22:48:23.222Z,99433.22
2022-10-31T22:50:50.049Z,99424.22
2022-10-31T22:53:16.887Z,99431.63
2022-10-31T22:55:43.821Z,99429.34
2022-10-31T22:58:10.653Z,99422.28
2022-10-31T23:00:37.575Z,99425.38
2022-10-31T23:03:04.527Z,99436.09
2022-10-31T23:05:31.413Z,99438.81
2022-10-31T23:07:58.567Z,99430.16
2022-10-31T23:10:33.164Z,99431.25
2022-10-31T23:13:19.383Z,99427.91
2022-10-31T23:15:46.312Z,99403.00
2022-10-31T23:18:23.856Z,99421.97
2022-10-31T23:20:56.926Z,99420.69
2022-10-31T23:23:23.785Z,99416.16
2022-10-31T23:26:09.422Z,99403.00
2022-10-31T23:28:36.457Z,99413.44
2022-10-31T23:31:03.306Z,99415.06
2022-10-31T23:33:31.548Z,99411.34
2022-10-31T23:35:58.467Z,99408.47
2022-10-31T23:38:25.291Z,99406.88
2022-10-31T23:40:52.187Z,99401.88
2022-10-31T23:43:19.051Z,99398.69
2022-10-31T23:45:45.857Z,99395.13
2022-10-31T23:48:12.731Z,99385.66
2022-10-31T23:50:39.557Z,99380.50
2022-10-31T23:53:06.376Z,99381.31
2022-10-31T23:55:33.293Z,99372.47
2022-10-31T23:58:00.407Z,99372.31
